sensor_id;sensor_type;location;lat;lon;timestamp;P1;durP1;ratioP1;P2;durP2;ratioP2
46463;SDS011;32161;48.148;-1.554;2023-04-01T00:00:12;18.17;;;2.88;;
46463;SDS011;32161;48.148;-1.554;2023-04-01T00:02:41;14.43;;;3.03;;
46463;SDS011;32161;48.148;-1.554;2023-04-01T00:05:10;13.45;;;2.72;;
46463;SDS011;32161;48.148;-1.554;2023-04-01T00:07:38;16.90;;;3.33;;
46463;SDS011;32161;48.148;-1.554;2023-04-01T00:10:07;11.98;;;2.53;;
46463;SDS011;32161;48.148;-1.554;2023-04-01T00:12:37;17.05;;;3.03;;
46463;SDS011;32161;48.148;-1.554;2023-04-01T00:15:06;11.50;;;2.40;;
46463;SDS011;32161;48.148;-1.554;2023-04-01T00:17:36;16.67;;;4.32;;
46463;SDS011;32161;48.148;-1.554;2023-04-01T00:20:04;18.00;;;3.53;;
46463;SDS011;32161;48.148;-1.554;2023-04-01T00:22:35;18.05;;;3.67;;
46463;SDS011;32161;48.148;-1.554;2023-04-01T00:25:03;16.02;;;3.65;;
46463;SDS011;32161;48.148;-1.554;2023-04-01T00:27:31;17.25;;;3.40;;
46463;SDS011;32161;48.148;-1.554;2023-04-01T00:29:59;14.70;;;3.08;;
46463;SDS011;32161;48.148;-1.554;2023-04-01T00:32:27;15.43;;;3.15;;
46463;SDS011;32161;48.148;-1.554;2023-04-01T00:34:56;21.38;;;3.83;;
46463;SDS011;32161;48.148;-1.554;2023-04-01T00:37:24;21.02;;;2.85;;
46463;SDS011;32161;48.148;-1.554;2023-04-01T00:39:54;12.48;;;2.63;;
46463;SDS011;32161;48.148;-1.554;2023-04-01T00:42:22;20.67;;;4.07;;
46463;SDS011;32161;48.148;-1.554;2023-04-01T00:44:51;24.83;;;4.35;;
46463;SDS011;32161;48.148;-1.554;2023-04-01T00:47:21;18.67;;;2.72;;
46463;SDS011;32161;48.148;-1.554;2023-04-01T00:49:51;15.93;;;2.88;;
46463;SDS011;32161;48.148;-1.554;2023-04-01T00:52:21;18.52;;;2.75;;
46463;SDS011;32161;48.148;-1.554;2023-04-01T00:54:53;10.52;;;3.13;;
46463;SDS011;32161;48.148;-1.554;2023-04-01T00:57:27;15.45;;;3.42;;
46463;SDS011;32161;48.148;-1.554;2023-04-01T01:00:02;14.45;;;2.72;;
46463;SDS011;32161;48.148;-1.554;2023-04-01T01:02:35;16.00;;;3.38;;
46463;SDS011;32161;48.148;-1.554;2023-04-01T01:05:03;18.95;;;3.38;;
46463;SDS011;32161;48.148;-1.554;2023-04-01T01:07:32;28.92;;;3.83;;
46463;SDS011;32161;48.148;-1.554;2023-04-01T01:10:08;15.65;;;2.70;;
46463;SDS011;32161;48.148;-1.554;2023-04-01T01:12:44;21.90;;;3.15;;
46463;SDS011;32161;48.148;-1.554;2023-04-01T01:15:20;17.80;;;3.83;;
46463;SDS011;32161;48.148;-1.554;2023-04-01T01:17:54;13.23;;;3.33;;
46463;SDS011;32161;48.148;-1.554;2023-04-01T01:20:35;23.60;;;4.38;;
46463;SDS011;32161;48.148;-1.554;2023-04-01T01:23:52;20.65;;;2.72;;
46463;SDS011;32161;48.148;-1.554;2023-04-01T01:26:49;17.38;;;2.90;;
46463;SDS011;32161;48.148;-1.554;2023-04-01T01:29:34;22.00;;;2.85;;
46463;SDS011;32161;48.148;-1.554;2023-04-01T01:32:33;17.17;;;2.83;;
46463;SDS011;32161;48.148;-1.554;2023-04-01T01:35:28;16.05;;;3.70;;
46463;SDS011;32161;48.148;-1.554;2023-04-01T01:37:59;20.77;;;3.55;;
46463;SDS011;32161;48.148;-1.554;2023-04-01T01:40:31;14.00;;;4.50;;
46463;SDS011;32161;48.148;-1.554;2023-04-01T01:43:02;12.13;;;2.65;;
46463;SDS011;32161;48.148;-1.554;2023-04-01T01:45:36;15.05;;;2.90;;
46463;SDS011;32161;48.148;-1.554;2023-04-01T01:48:09;15.68;;;2.63;;
46463;SDS011;32161;48.148;-1.554;2023-04-01T01:50:40;20.75;;;3.40;;
46463;SDS011;32161;48.148;-1.554;2023-04-01T01:53:10;11.68;;;2.28;;
46463;SDS011;32161;48.148;-1.554;2023-04-01T01:55:40;16.52;;;4.47;;
46463;SDS011;32161;48.148;-1.554;2023-04-01T02:00:41;13.25;;;3.30;;
46463;SDS011;32161;48.148;-1.554;2023-04-01T02:03:14;14.77;;;2.70;;
46463;SDS011;32161;48.148;-1.554;2023-04-01T02:05:45;11.10;;;3.35;;
46463;SDS011;32161;48.148;-1.554;2023-04-01T02:08:14;12.70;;;2.10;;
46463;SDS011;32161;48.148;-1.554;2023-04-01T02:10:48;14.00;;;3.08;;
46463;SDS011;32161;48.148;-1.554;2023-04-01T02:13:27;22.17;;;2.60;;
46463;SDS011;32161;48.148;-1.554;2023-04-01T02:16:02;16.38;;;2.40;;
46463;SDS011;32161;48.148;-1.554;2023-04-01T02:18:35;16.33;;;2.50;;
46463;SDS011;32161;48.148;-1.554;2023-04-01T02:21:06;11.25;;;2.05;;
46463;SDS011;32161;48.148;-1.554;2023-04-01T02:23:35;12.05;;;2.97;;
46463;SDS011;32161;48.148;-1.554;2023-04-01T02:26:04;9.63;;;2.85;;
46463;SDS011;32161;48.148;-1.554;2023-04-01T02:28:34;12.45;;;2.25;;
46463;SDS011;32161;48.148;-1.554;2023-04-01T02:31:05;9.93;;;1.90;;
46463;SDS011;32161;48.148;-1.554;2023-04-01T02:33:35;13.60;;;2.45;;
46463;SDS011;32161;48.148;-1.554;2023-04-01T02:36:04;16.73;;;3.40;;
46463;SDS011;32161;48.148;-1.554;2023-04-01T02:38:37;14.48;;;2.58;;
46463;SDS011;32161;48.148;-1.554;2023-04-01T02:41:06;8.80;;;1.73;;
46463;SDS011;32161;48.148;-1.554;2023-04-01T02:43:33;12.75;;;2.60;;
46463;SDS011;32161;48.148;-1.554;2023-04-01T02:46:01;11.35;;;2.33;;
46463;SDS011;32161;48.148;-1.554;2023-04-01T02:48:28;16.73;;;3.20;;
46463;SDS011;32161;48.148;-1.554;2023-04-01T02:50:56;14.55;;;2.25;;
46463;SDS011;32161;48.148;-1.554;2023-04-01T02:53:25;10.93;;;1.80;;
46463;SDS011;32161;48.148;-1.554;2023-04-01T02:55:52;11.20;;;1.67;;
46463;SDS011;32161;48.148;-1.554;2023-04-01T02:58:21;11.27;;;1.92;;
46463;SDS011;32161;48.148;-1.554;2023-04-01T03:00:48;11.13;;;2.65;;
46463;SDS011;32161;48.148;-1.554;2023-04-01T03:03:16;11.65;;;2.85;;
46463;SDS011;32161;48.148;-1.554;2023-04-01T03:05:43;11.20;;;2.20;;
46463;SDS011;32161;48.148;-1.554;2023-04-01T03:08:11;11.30;;;2.05;;
46463;SDS011;32161;48.148;-1.554;2023-04-01T03:10:40;10.38;;;2.05;;
46463;SDS011;32161;48.148;-1.554;2023-04-01T03:13:08;17.02;;;2.28;;
46463;SDS011;32161;48.148;-1.554;2023-04-01T03:15:36;18.70;;;2.20;;
46463;SDS011;32161;48.148;-1.554;2023-04-01T03:18:03;13.93;;;1.88;;
46463;SDS011;32161;48.148;-1.554;2023-04-01T03:20:31;9.23;;;2.20;;
46463;SDS011;32161;48.148;-1.554;2023-04-01T03:22:59;8.32;;;1.77;;
46463;SDS011;32161;48.148;-1.554;2023-04-01T03:25:26;15.40;;;2.85;;
46463;SDS011;32161;48.148;-1.554;2023-04-01T03:27:57;16.52;;;2.58;;
46463;SDS011;32161;48.148;-1.554;2023-04-01T03:30:25;10.52;;;1.80;;
46463;SDS011;32161;48.148;-1.554;2023-04-01T03:32:55;11.10;;;2.17;;
46463;SDS011;32161;48.148;-1.554;2023-04-01T03:35:22;14.00;;;2.20;;
46463;SDS011;32161;48.148;-1.554;2023-04-01T03:37:50;5.13;;;2.00;;
46463;SDS011;32161;48.148;-1.554;2023-04-01T03:40:19;13.43;;;2.08;;
46463;SDS011;32161;48.148;-1.554;2023-04-01T03:42:47;11.02;;;2.42;;
46463;SDS011;32161;48.148;-1.554;2023-04-01T03:45:17;10.00;;;1.52;;
46463;SDS011;32161;48.148;-1.554;2023-04-01T03:47:45;11.48;;;2.97;;
46463;SDS011;32161;48.148;-1.554;2023-04-01T03:50:12;14.38;;;3.00;;
46463;SDS011;32161;48.148;-1.554;2023-04-01T03:52:40;15.20;;;2.70;;
46463;SDS011;32161;48.148;-1.554;2023-04-01T03:55:08;15.18;;;3.40;;
46463;SDS011;32161;48.148;-1.554;2023-04-01T03:57:36;11.40;;;2.28;;
46463;SDS011;32161;48.148;-1.554;2023-04-01T04:00:04;15.70;;;3.60;;
46463;SDS011;32161;48.148;-1.554;2023-04-01T04:02:35;15.60;;;2.42;;
46463;SDS011;32161;48.148;-1.554;2023-04-01T04:05:03;13.73;;;3.45;;
46463;SDS011;32161;48.148;-1.554;2023-04-01T04:07:33;12.88;;;2.95;;
46463;SDS011;32161;48.148;-1.554;2023-04-01T04:10:01;13.43;;;2.47;;
46463;SDS011;32161;48.148;-1.554;2023-04-01T04:12:29;20.50;;;4.60;;
46463;SDS011;32161;48.148;-1.554;2023-04-01T04:14:57;13.48;;;3.13;;
46463;SDS011;32161;48.148;-1.554;2023-04-01T04:17:24;10.23;;;2.97;;
46463;SDS011;32161;48.148;-1.554;2023-04-01T04:19:53;13.43;;;3.05;;
46463;SDS011;32161;48.148;-1.554;2023-04-01T04:22:21;14.95;;;3.53;;
46463;SDS011;32161;48.148;-1.554;2023-04-01T04:24:48;15.18;;;3.65;;
46463;SDS011;32161;48.148;-1.554;2023-04-01T04:27:16;17.77;;;3.30;;
46463;SDS011;32161;48.148;-1.554;2023-04-01T04:29:44;13.85;;;3.10;;
46463;SDS011;32161;48.148;-1.554;2023-04-01T04:32:11;12.60;;;2.63;;
46463;SDS011;32161;48.148;-1.554;2023-04-01T04:34:39;15.30;;;3.33;;
46463;SDS011;32161;48.148;-1.554;2023-04-01T04:37:08;16.20;;;3.20;;
46463;SDS011;32161;48.148;-1.554;2023-04-01T04:39:35;17.08;;;3.45;;
46463;SDS011;32161;48.148;-1.554;2023-04-01T04:42:03;17.77;;;3.83;;
46463;SDS011;32161;48.148;-1.554;2023-04-01T04:44:31;14.88;;;3.35;;
46463;SDS011;32161;48.148;-1.554;2023-04-01T04:46:59;13.32;;;3.40;;
46463;SDS011;32161;48.148;-1.554;2023-04-01T04:49:27;14.85;;;3.58;;
46463;SDS011;32161;48.148;-1.554;2023-04-01T04:51:54;13.52;;;2.92;;
46463;SDS011;32161;48.148;-1.554;2023-04-01T04:54:23;18.92;;;4.10;;
46463;SDS011;32161;48.148;-1.554;2023-04-01T04:56:51;13.88;;;3.00;;
46463;SDS011;32161;48.148;-1.554;2023-04-01T04:59:19;13.10;;;3.00;;
46463;SDS011;32161;48.148;-1.554;2023-04-01T05:01:46;10.25;;;3.08;;
46463;SDS011;32161;48.148;-1.554;2023-04-01T05:04:14;14.57;;;2.95;;
46463;SDS011;32161;48.148;-1.554;2023-04-01T05:06:42;10.40;;;2.10;;
46463;SDS011;32161;48.148;-1.554;2023-04-01T05:09:10;12.20;;;2.15;;
46463;SDS011;32161;48.148;-1.554;2023-04-01T05:11:39;7.25;;;2.03;;
46463;SDS011;32161;48.148;-1.554;2023-04-01T05:14:11;15.55;;;3.03;;
46463;SDS011;32161;48.148;-1.554;2023-04-01T05:16:40;10.18;;;2.10;;
46463;SDS011;32161;48.148;-1.554;2023-04-01T05:19:08;16.00;;;2.30;;
46463;SDS011;32161;48.148;-1.554;2023-04-01T05:21:35;14.57;;;1.90;;
46463;SDS011;32161;48.148;-1.554;2023-04-01T05:24:03;10.55;;;2.47;;
46463;SDS011;32161;48.148;-1.554;2023-04-01T05:26:34;9.95;;;2.00;;
46463;SDS011;32161;48.148;-1.554;2023-04-01T05:29:04;9.68;;;2.00;;
46463;SDS011;32161;48.148;-1.554;2023-04-01T05:31:32;10.68;;;1.77;;
46463;SDS011;32161;48.148;-1.554;2023-04-01T05:33:59;12.57;;;1.95;;
46463;SDS011;32161;48.148;-1.554;2023-04-01T05:36:27;11.07;;;2.30;;
46463;SDS011;32161;48.148;-1.554;2023-04-01T05:38:55;16.52;;;3.78;;
46463;SDS011;32161;48.148;-1.554;2023-04-01T05:41:23;14.57;;;2.88;;
46463;SDS011;32161;48.148;-1.554;2023-04-01T05:43:50;12.07;;;2.22;;
46463;SDS011;32161;48.148;-1.554;2023-04-01T05:46:19;10.70;;;2.22;;
46463;SDS011;32161;48.148;-1.554;2023-04-01T05:48:47;9.90;;;2.28;;
46463;SDS011;32161;48.148;-1.554;2023-04-01T05:51:15;14.23;;;2.35;;
46463;SDS011;32161;48.148;-1.554;2023-04-01T05:53:42;9.48;;;2.65;;
46463;SDS011;32161;48.148;-1.554;2023-04-01T05:56:10;13.30;;;2.53;;
46463;SDS011;32161;48.148;-1.554;2023-04-01T05:58:38;9.50;;;2.00;;
46463;SDS011;32161;48.148;-1.554;2023-04-01T06:01:06;13.23;;;2.65;;
46463;SDS011;32161;48.148;-1.554;2023-04-01T06:03:37;18.48;;;2.38;;
46463;SDS011;32161;48.148;-1.554;2023-04-01T06:06:05;13.77;;;2.47;;
46463;SDS011;32161;48.148;-1.554;2023-04-01T06:08:40;13.77;;;2.30;;
46463;SDS011;32161;48.148;-1.554;2023-04-01T06:11:13;11.85;;;2.38;;
46463;SDS011;32161;48.148;-1.554;2023-04-01T06:13:59;10.88;;;2.42;;
46463;SDS011;32161;48.148;-1.554;2023-04-01T06:16:44;10.68;;;2.53;;
46463;SDS011;32161;48.148;-1.554;2023-04-01T06:19:29;14.13;;;2.38;;
46463;SDS011;32161;48.148;-1.554;2023-04-01T06:22:15;12.05;;;2.80;;
46463;SDS011;32161;48.148;-1.554;2023-04-01T06:25:18;14.95;;;2.75;;
46463;SDS011;32161;48.148;-1.554;2023-04-01T06:28:19;13.85;;;4.63;;
46463;SDS011;32161;48.148;-1.554;2023-04-01T06:31:16;17.05;;;4.07;;
46463;SDS011;32161;48.148;-1.554;2023-04-01T06:34:16;16.38;;;4.50;;
46463;SDS011;32161;48.148;-1.554;2023-04-01T06:37:06;22.92;;;3.10;;
46463;SDS011;32161;48.148;-1.554;2023-04-01T06:39:59;18.60;;;5.22;;
46463;SDS011;32161;48.148;-1.554;2023-04-01T06:43:02;16.17;;;3.42;;
46463;SDS011;32161;48.148;-1.554;2023-04-01T06:45:41;12.43;;;3.63;;
46463;SDS011;32161;48.148;-1.554;2023-04-01T06:48:18;13.02;;;2.35;;
46463;SDS011;32161;48.148;-1.554;2023-04-01T06:51:05;22.48;;;4.40;;
46463;SDS011;32161;48.148;-1.554;2023-04-01T06:53:44;14.85;;;3.00;;
46463;SDS011;32161;48.148;-1.554;2023-04-01T06:56:21;12.40;;;2.97;;
46463;SDS011;32161;48.148;-1.554;2023-04-01T06:58:53;10.85;;;2.53;;
46463;SDS011;32161;48.148;-1.554;2023-04-01T07:01:26;16.02;;;3.42;;
46463;SDS011;32161;48.148;-1.554;2023-04-01T07:04:00;13.20;;;3.70;;
46463;SDS011;32161;48.148;-1.554;2023-04-01T07:06:35;18.10;;;2.75;;
46463;SDS011;32161;48.148;-1.554;2023-04-01T07:09:10;11.90;;;2.42;;
46463;SDS011;32161;48.148;-1.554;2023-04-01T07:11:42;11.15;;;2.22;;
46463;SDS011;32161;48.148;-1.554;2023-04-01T07:14:13;13.60;;;3.33;;
46463;SDS011;32161;48.148;-1.554;2023-04-01T07:16:47;23.23;;;2.97;;
46463;SDS011;32161;48.148;-1.554;2023-04-01T07:19:22;15.25;;;2.28;;
46463;SDS011;32161;48.148;-1.554;2023-04-01T07:21:58;16.55;;;2.92;;
46463;SDS011;32161;48.148;-1.554;2023-04-01T07:24:32;17.77;;;4.75;;
46463;SDS011;32161;48.148;-1.554;2023-04-01T07:27:02;11.68;;;2.63;;
46463;SDS011;32161;48.148;-1.554;2023-04-01T07:29:31;14.05;;;3.83;;
46463;SDS011;32161;48.148;-1.554;2023-04-01T07:32:04;13.20;;;2.10;;
46463;SDS011;32161;48.148;-1.554;2023-04-01T07:35:00;16.15;;;2.17;;
46463;SDS011;32161;48.148;-1.554;2023-04-01T07:37:47;21.17;;;3.28;;
46463;SDS011;32161;48.148;-1.554;2023-04-01T07:40:32;13.93;;;2.58;;
46463;SDS011;32161;48.148;-1.554;2023-04-01T07:43:18;11.03;;;3.07;;
46463;SDS011;32161;48.148;-1.554;2023-04-01T07:46:14;22.63;;;2.75;;
46463;SDS011;32161;48.148;-1.554;2023-04-01T07:48:56;17.23;;;2.70;;
46463;SDS011;32161;48.148;-1.554;2023-04-01T07:51:32;13.63;;;2.53;;
46463;SDS011;32161;48.148;-1.554;2023-04-01T07:54:11;16.60;;;2.22;;
46463;SDS011;32161;48.148;-1.554;2023-04-01T07:56:49;11.32;;;1.90;;
46463;SDS011;32161;48.148;-1.554;2023-04-01T07:59:29;13.73;;;2.78;;
46463;SDS011;32161;48.148;-1.554;2023-04-01T08:02:06;12.18;;;2.00;;
46463;SDS011;32161;48.148;-1.554;2023-04-01T08:04:55;16.75;;;2.92;;
46463;SDS011;32161;48.148;-1.554;2023-04-01T08:07:39;16.52;;;2.60;;
46463;SDS011;32161;48.148;-1.554;2023-04-01T08:10:16;12.15;;;2.15;;
46463;SDS011;32161;48.148;-1.554;2023-04-01T08:12:52;16.08;;;2.65;;
46463;SDS011;32161;48.148;-1.554;2023-04-01T08:15:33;18.00;;;2.53;;
46463;SDS011;32161;48.148;-1.554;2023-04-01T08:18:10;17.10;;;2.30;;
46463;SDS011;32161;48.148;-1.554;2023-04-01T08:20:50;15.50;;;3.10;;
46463;SDS011;32161;48.148;-1.554;2023-04-01T08:23:22;13.57;;;2.70;;
46463;SDS011;32161;48.148;-1.554;2023-04-01T08:25:56;18.17;;;2.42;;
46463;SDS011;32161;48.148;-1.554;2023-04-01T08:28:32;17.15;;;3.00;;
46463;SDS011;32161;48.148;-1.554;2023-04-01T08:31:04;13.35;;;2.88;;
46463;SDS011;32161;48.148;-1.554;2023-04-01T08:33:37;10.73;;;1.85;;
46463;SDS011;32161;48.148;-1.554;2023-04-01T08:36:08;14.68;;;2.63;;
46463;SDS011;32161;48.148;-1.554;2023-04-01T08:38:42;12.23;;;3.33;;
46463;SDS011;32161;48.148;-1.554;2023-04-01T08:44:26;11.25;;;1.85;;
46463;SDS011;32161;48.148;-1.554;2023-04-01T08:47:35;13.00;;;3.20;;
46463;SDS011;32161;48.148;-1.554;2023-04-01T08:50:47;11.68;;;2.97;;
46463;SDS011;32161;48.148;-1.554;2023-04-01T08:53:38;17.42;;;2.30;;
46463;SDS011;32161;48.148;-1.554;2023-04-01T08:56:26;11.57;;;1.95;;
46463;SDS011;32161;48.148;-1.554;2023-04-01T08:59:08;10.73;;;2.25;;
46463;SDS011;32161;48.148;-1.554;2023-04-01T09:02:24;16.48;;;2.10;;
46463;SDS011;32161;48.148;-1.554;2023-04-01T09:08:45;13.70;;;2.95;;
46463;SDS011;32161;48.148;-1.554;2023-04-01T09:11:30;12.25;;;2.20;;
46463;SDS011;32161;48.148;-1.554;2023-04-01T09:17:43;13.00;;;2.45;;
46463;SDS011;32161;48.148;-1.554;2023-04-01T09:20:41;10.82;;;2.67;;
46463;SDS011;32161;48.148;-1.554;2023-04-01T09:23:26;12.55;;;2.58;;
46463;SDS011;32161;48.148;-1.554;2023-04-01T09:26:20;17.92;;;2.20;;
46463;SDS011;32161;48.148;-1.554;2023-04-01T09:29:12;7.15;;;2.22;;
46463;SDS011;32161;48.148;-1.554;2023-04-01T09:32:05;9.77;;;1.50;;
46463;SDS011;32161;48.148;-1.554;2023-04-01T09:35:18;10.73;;;2.10;;
46463;SDS011;32161;48.148;-1.554;2023-04-01T09:37:53;12.50;;;2.22;;
46463;SDS011;32161;48.148;-1.554;2023-04-01T09:40:34;14.43;;;2.10;;
46463;SDS011;32161;48.148;-1.554;2023-04-01T09:46:14;9.43;;;2.35;;
46463;SDS011;32161;48.148;-1.554;2023-04-01T09:49:02;12.10;;;2.35;;
46463;SDS011;32161;48.148;-1.554;2023-04-01T09:51:59;9.18;;;1.80;;
46463;SDS011;32161;48.148;-1.554;2023-04-01T09:54:55;9.73;;;2.00;;
46463;SDS011;32161;48.148;-1.554;2023-04-01T10:01:18;13.32;;;2.80;;
46463;SDS011;32161;48.148;-1.554;2023-04-01T10:04:22;9.70;;;1.80;;
46463;SDS011;32161;48.148;-1.554;2023-04-01T10:08:05;10.05;;;2.08;;
46463;SDS011;32161;48.148;-1.554;2023-04-01T10:17:46;15.18;;;1.95;;
46463;SDS011;32161;48.148;-1.554;2023-04-01T10:23:45;13.93;;;2.25;;
46463;SDS011;32161;48.148;-1.554;2023-04-01T10:26:59;11.93;;;1.92;;
46463;SDS011;32161;48.148;-1.554;2023-04-01T10:29:59;11.15;;;1.80;;
46463;SDS011;32161;48.148;-1.554;2023-04-01T10:36:15;7.63;;;1.27;;
46463;SDS011;32161;48.148;-1.554;2023-04-01T10:39:20;8.18;;;2.05;;
46463;SDS011;32161;48.148;-1.554;2023-04-01T10:42:31;9.15;;;1.65;;
46463;SDS011;32161;48.148;-1.554;2023-04-01T10:45:37;6.35;;;1.50;;
46463;SDS011;32161;48.148;-1.554;2023-04-01T10:59:09;3.13;;;1.40;;
46463;SDS011;32161;48.148;-1.554;2023-04-01T11:12:47;9.05;;;1.42;;
46463;SDS011;32161;48.148;-1.554;2023-04-01T11:16:00;10.70;;;1.90;;
46463;SDS011;32161;48.148;-1.554;2023-04-01T11:25:36;8.25;;;1.80;;
46463;SDS011;32161;48.148;-1.554;2023-04-01T11:28:37;4.30;;;0.90;;
46463;SDS011;32161;48.148;-1.554;2023-04-01T11:37:37;5.60;;;0.80;;
46463;SDS011;32161;48.148;-1.554;2023-04-01T11:40:17;2.90;;;2.05;;
46463;SDS011;32161;48.148;-1.554;2023-04-01T11:42:55;6.05;;;1.15;;
46463;SDS011;32161;48.148;-1.554;2023-04-01T11:45:35;7.13;;;1.45;;
46463;SDS011;32161;48.148;-1.554;2023-04-01T11:48:15;10.05;;;1.33;;
46463;SDS011;32161;48.148;-1.554;2023-04-01T11:51:10;8.85;;;1.10;;
46463;SDS011;32161;48.148;-1.554;2023-04-01T11:54:07;3.13;;;1.10;;
46463;SDS011;32161;48.148;-1.554;2023-04-01T11:56:53;4.00;;;0.80;;
46463;SDS011;32161;48.148;-1.554;2023-04-01T12:03:05;1.65;;;0.65;;
46463;SDS011;32161;48.148;-1.554;2023-04-01T12:05:52;4.32;;;0.93;;
46463;SDS011;32161;48.148;-1.554;2023-04-01T12:08:31;5.28;;;1.00;;
46463;SDS011;32161;48.148;-1.554;2023-04-01T12:11:12;6.93;;;1.13;;
46463;SDS011;32161;48.148;-1.554;2023-04-01T12:13:52;4.72;;;1.40;;
46463;SDS011;32161;48.148;-1.554;2023-04-01T12:16:42;5.55;;;1.30;;
46463;SDS011;32161;48.148;-1.554;2023-04-01T12:19:23;12.07;;;1.90;;
46463;SDS011;32161;48.148;-1.554;2023-04-01T12:22:07;10.20;;;2.03;;
46463;SDS011;32161;48.148;-1.554;2023-04-01T12:27:31;9.52;;;1.85;;
46463;SDS011;32161;48.148;-1.554;2023-04-01T12:30:21;7.50;;;1.70;;
46463;SDS011;32161;48.148;-1.554;2023-04-01T12:36:30;13.13;;;2.17;;
46463;SDS011;32161;48.148;-1.554;2023-04-01T12:39:20;11.48;;;2.22;;
46463;SDS011;32161;48.148;-1.554;2023-04-01T12:42:07;13.35;;;2.47;;
46463;SDS011;32161;48.148;-1.554;2023-04-01T12:44:51;8.90;;;2.30;;
46463;SDS011;32161;48.148;-1.554;2023-04-01T12:47:49;10.30;;;1.95;;
46463;SDS011;32161;48.148;-1.554;2023-04-01T12:50:48;14.25;;;3.58;;
46463;SDS011;32161;48.148;-1.554;2023-04-01T12:54:14;14.07;;;3.83;;
46463;SDS011;32161;48.148;-1.554;2023-04-01T12:57:16;16.35;;;2.67;;
46463;SDS011;32161;48.148;-1.554;2023-04-01T13:00:00;15.52;;;3.03;;
46463;SDS011;32161;48.148;-1.554;2023-04-01T13:02:40;6.28;;;1.63;;
46463;SDS011;32161;48.148;-1.554;2023-04-01T13:08:47;7.93;;;1.15;;
46463;SDS011;32161;48.148;-1.554;2023-04-01T13:11:27;5.97;;;0.90;;
46463;SDS011;32161;48.148;-1.554;2023-04-01T13:17:08;5.85;;;1.08;;
46463;SDS011;32161;48.148;-1.554;2023-04-01T13:19:44;8.63;;;1.30;;
46463;SDS011;32161;48.148;-1.554;2023-04-01T13:22:17;13.07;;;2.25;;
46463;SDS011;32161;48.148;-1.554;2023-04-01T13:24:53;8.38;;;1.42;;
46463;SDS011;32161;48.148;-1.554;2023-04-01T13:27:31;7.55;;;1.60;;
46463;SDS011;32161;48.148;-1.554;2023-04-01T13:30:16;5.63;;;1.20;;
46463;SDS011;32161;48.148;-1.554;2023-04-01T13:32:55;8.25;;;1.55;;
46463;SDS011;32161;48.148;-1.554;2023-04-01T13:35:34;15.10;;;2.05;;
46463;SDS011;32161;48.148;-1.554;2023-04-01T13:38:21;12.27;;;1.67;;
46463;SDS011;32161;48.148;-1.554;2023-04-01T13:41:32;14.40;;;2.00;;
46463;SDS011;32161;48.148;-1.554;2023-04-01T13:44:17;13.35;;;1.85;;
46463;SDS011;32161;48.148;-1.554;2023-04-01T13:46:58;13.15;;;2.10;;
46463;SDS011;32161;48.148;-1.554;2023-04-01T13:50:07;13.23;;;2.20;;
46463;SDS011;32161;48.148;-1.554;2023-04-01T13:52:59;12.57;;;2.10;;
46463;SDS011;32161;48.148;-1.554;2023-04-01T13:56:03;17.60;;;2.95;;
46463;SDS011;32161;48.148;-1.554;2023-04-01T14:02:31;10.95;;;2.08;;
46463;SDS011;32161;48.148;-1.554;2023-04-01T14:08:26;4.18;;;1.23;;
46463;SDS011;32161;48.148;-1.554;2023-04-01T14:11:06;5.55;;;1.10;;
46463;SDS011;32161;48.148;-1.554;2023-04-01T14:13:46;3.85;;;1.27;;
46463;SDS011;32161;48.148;-1.554;2023-04-01T14:16:30;6.07;;;1.13;;
46463;SDS011;32161;48.148;-1.554;2023-04-01T14:19:50;11.30;;;1.73;;
46463;SDS011;32161;48.148;-1.554;2023-04-01T14:22:51;8.70;;;1.52;;
46463;SDS011;32161;48.148;-1.554;2023-04-01T14:29:01;9.38;;;2.35;;
46463;SDS011;32161;48.148;-1.554;2023-04-01T14:31:48;11.88;;;1.85;;
46463;SDS011;32161;48.148;-1.554;2023-04-01T14:34:46;13.35;;;2.97;;
46463;SDS011;32161;48.148;-1.554;2023-04-01T14:37:31;12.65;;;2.97;;
46463;SDS011;32161;48.148;-1.554;2023-04-01T14:40:28;9.80;;;2.08;;
46463;SDS011;32161;48.148;-1.554;2023-04-01T14:46:14;12.68;;;2.15;;
46463;SDS011;32161;48.148;-1.554;2023-04-01T14:49:04;12.52;;;2.33;;
46463;SDS011;32161;48.148;-1.554;2023-04-01T14:51:42;9.98;;;2.08;;
46463;SDS011;32161;48.148;-1.554;2023-04-01T14:54:13;12.07;;;2.80;;
46463;SDS011;32161;48.148;-1.554;2023-04-01T14:56:48;11.23;;;2.10;;
46463;SDS011;32161;48.148;-1.554;2023-04-01T14:59:25;6.50;;;1.67;;
46463;SDS011;32161;48.148;-1.554;2023-04-01T15:01:56;14.40;;;2.38;;
46463;SDS011;32161;48.148;-1.554;2023-04-01T15:13:59;8.18;;;1.42;;
46463;SDS011;32161;48.148;-1.554;2023-04-01T15:16:46;10.68;;;2.05;;
46463;SDS011;32161;48.148;-1.554;2023-04-01T15:19:29;7.43;;;1.00;;
46463;SDS011;32161;48.148;-1.554;2023-04-01T15:25:19;8.85;;;1.42;;
46463;SDS011;32161;48.148;-1.554;2023-04-01T15:28:05;8.55;;;1.80;;
46463;SDS011;32161;48.148;-1.554;2023-04-01T15:30:48;5.20;;;1.50;;
46463;SDS011;32161;48.148;-1.554;2023-04-01T15:36:39;11.52;;;1.80;;
46463;SDS011;32161;48.148;-1.554;2023-04-01T15:39:18;11.55;;;2.10;;
46463;SDS011;32161;48.148;-1.554;2023-04-01T15:42:03;10.75;;;1.88;;
46463;SDS011;32161;48.148;-1.554;2023-04-01T15:44:52;12.55;;;1.85;;
46463;SDS011;32161;48.148;-1.554;2023-04-01T15:47:39;13.82;;;2.35;;
46463;SDS011;32161;48.148;-1.554;2023-04-01T15:50:24;12.55;;;2.35;;
46463;SDS011;32161;48.148;-1.554;2023-04-01T15:53:20;13.73;;;2.17;;
46463;SDS011;32161;48.148;-1.554;2023-04-01T15:56:41;12.50;;;1.63;;
46463;SDS011;32161;48.148;-1.554;2023-04-01T15:59:24;12.90;;;2.17;;
46463;SDS011;32161;48.148;-1.554;2023-04-01T16:02:18;11.60;;;2.42;;
46463;SDS011;32161;48.148;-1.554;2023-04-01T16:04:58;12.52;;;1.98;;
46463;SDS011;32161;48.148;-1.554;2023-04-01T16:07:43;8.77;;;1.70;;
46463;SDS011;32161;48.148;-1.554;2023-04-01T16:10:31;11.00;;;1.90;;
46463;SDS011;32161;48.148;-1.554;2023-04-01T16:13:23;7.78;;;1.83;;
46463;SDS011;32161;48.148;-1.554;2023-04-01T16:16:03;10.50;;;2.08;;
46463;SDS011;32161;48.148;-1.554;2023-04-01T16:21:44;10.15;;;2.67;;
46463;SDS011;32161;48.148;-1.554;2023-04-01T16:24:19;11.95;;;1.73;;
46463;SDS011;32161;48.148;-1.554;2023-04-01T16:27:00;12.55;;;2.75;;
46463;SDS011;32161;48.148;-1.554;2023-04-01T16:29:33;8.73;;;1.70;;
46463;SDS011;32161;48.148;-1.554;2023-04-01T16:32:17;10.30;;;2.15;;
46463;SDS011;32161;48.148;-1.554;2023-04-01T16:35:16;10.43;;;1.55;;
46463;SDS011;32161;48.148;-1.554;2023-04-01T16:37:59;10.63;;;2.28;;
46463;SDS011;32161;48.148;-1.554;2023-04-01T16:40:37;9.90;;;1.83;;
46463;SDS011;32161;48.148;-1.554;2023-04-01T16:43:16;11.00;;;2.03;;
46463;SDS011;32161;48.148;-1.554;2023-04-01T16:45:55;7.13;;;1.40;;
46463;SDS011;32161;48.148;-1.554;2023-04-01T16:48:52;10.70;;;1.55;;
46463;SDS011;32161;48.148;-1.554;2023-04-01T16:52:03;11.25;;;2.30;;
46463;SDS011;32161;48.148;-1.554;2023-04-01T16:54:42;11.70;;;1.80;;
46463;SDS011;32161;48.148;-1.554;2023-04-01T16:57:20;8.23;;;1.83;;
46463;SDS011;32161;48.148;-1.554;2023-04-01T16:59:57;13.20;;;2.85;;
46463;SDS011;32161;48.148;-1.554;2023-04-01T17:02:31;6.88;;;1.23;;
46463;SDS011;32161;48.148;-1.554;2023-04-01T17:05:08;9.27;;;1.20;;
46463;SDS011;32161;48.148;-1.554;2023-04-01T17:07:41;6.60;;;1.05;;
46463;SDS011;32161;48.148;-1.554;2023-04-01T17:10:22;8.45;;;1.73;;
46463;SDS011;32161;48.148;-1.554;2023-04-01T17:13:08;11.48;;;1.10;;
46463;SDS011;32161;48.148;-1.554;2023-04-01T17:15:54;4.60;;;1.23;;
46463;SDS011;32161;48.148;-1.554;2023-04-01T17:18:34;7.90;;;1.55;;
46463;SDS011;32161;48.148;-1.554;2023-04-01T17:21:15;5.95;;;1.13;;
46463;SDS011;32161;48.148;-1.554;2023-04-01T17:23:50;4.85;;;1.65;;
46463;SDS011;32161;48.148;-1.554;2023-04-01T17:26:27;5.80;;;1.20;;
46463;SDS011;32161;48.148;-1.554;2023-04-01T17:29:06;4.70;;;1.10;;